sensor_id;sensor_type;location;lat;lon;timestamp;pressure;altitude;pressure_sealevel;temperature
44429;BMP180;30134;47.866;-4.222;2023-02-17T00:01:30;102803.00;;;23.70
44429;BMP180;30134;47.866;-4.222;2023-02-17T00:03:57;102803.00;;;23.70
44429;BMP180;30134;47.866;-4.222;2023-02-17T00:06:27;102800.00;;;23.70
44429;BMP180;30134;47.866;-4.222;2023-02-17T00:08:54;102806.00;;;23.70
44429;BMP180;30134;47.866;-4.222;2023-02-17T00:11:20;102803.00;;;23.70
44429;BMP180;30134;47.866;-4.222;2023-02-17T00:13:46;102804.00;;;23.70
44429;BMP180;30134;47.866;-4.222;2023-02-17T00:16:19;102807.00;;;23.70
44429;BMP180;30134;47.866;-4.222;2023-02-17T00:18:46;102805.00;;;23.70
44429;BMP180;30134;47.866;-4.222;2023-02-17T00:21:21;102815.00;;;23.70
44429;BMP180;30134;47.866;-4.222;2023-02-17T00:23:50;102816.00;;;23.70
44429;BMP180;30134;47.866;-4.222;2023-02-17T00:26:18;102818.00;;;23.70
44429;BMP180;30134;47.866;-4.222;2023-02-17T00:28:46;102824.00;;;23.70
44429;BMP180;30134;47.866;-4.222;2023-02-17T00:31:16;102824.00;;;23.70
44429;BMP180;30134;47.866;-4.222;2023-02-17T00:33:42;102819.00;;;23.70
44429;BMP180;30134;47.866;-4.222;2023-02-17T00:36:13;102818.00;;;23.70
44429;BMP180;30134;47.866;-4.222;2023-02-17T00:38:39;102824.00;;;23.70
44429;BMP180;30134;47.866;-4.222;2023-02-17T00:41:05;102812.00;;;23.70
44429;BMP180;30134;47.866;-4.222;2023-02-17T00:43:31;102826.00;;;23.70
44429;BMP180;30134;47.866;-4.222;2023-02-17T00:45:57;102828.00;;;23.70
44429;BMP180;30134;47.866;-4.222;2023-02-17T00:48:23;102832.00;;;23.70
44429;BMP180;30134;47.866;-4.222;2023-02-17T00:50:50;102842.00;;;23.70
44429;BMP180;30134;47.866;-4.222;2023-02-17T00:53:16;102840.00;;;23.70
44429;BMP180;30134;47.866;-4.222;2023-02-17T00:55:48;102845.00;;;23.70
44429;BMP180;30134;47.866;-4.222;2023-02-17T00:58:15;102844.00;;;23.70
44429;BMP180;30134;47.866;-4.222;2023-02-17T01:00:41;102839.00;;;23.70
44429;BMP180;30134;47.866;-4.222;2023-02-17T01:03:08;102841.00;;;23.70
44429;BMP180;30134;47.866;-4.222;2023-02-17T01:05:42;102842.00;;;23.70
44429;BMP180;30134;47.866;-4.222;2023-02-17T01:08:09;102838.00;;;23.70
44429;BMP180;30134;47.866;-4.222;2023-02-17T01:10:39;102836.00;;;23.70
44429;BMP180;30134;47.866;-4.222;2023-02-17T01:13:07;102839.00;;;23.70
44429;BMP180;30134;47.866;-4.222;2023-02-17T01:15:46;102841.00;;;23.70
44429;BMP180;30134;47.866;-4.222;2023-02-17T01:18:13;102840.00;;;23.70
44429;BMP180;30134;47.866;-4.222;2023-02-17T01:20:40;102840.00;;;23.70
44429;BMP180;30134;47.866;-4.222;2023-02-17T01:23:08;102841.00;;;23.70
44429;BMP180;30134;47.866;-4.222;2023-02-17T01:25:40;102843.00;;;23.70
44429;BMP180;30134;47.866;-4.222;2023-02-17T01:28:08;102841.00;;;23.70
44429;BMP180;30134;47.866;-4.222;2023-02-17T01:30:34;102842.00;;;23.70
44429;BMP180;30134;47.866;-4.222;2023-02-17T01:33:00;102837.00;;;23.70
44429;BMP180;30134;47.866;-4.222;2023-02-17T01:35:26;102841.00;;;23.70
44429;BMP180;30134;47.866;-4.222;2023-02-17T01:37:52;102837.00;;;23.70
44429;BMP180;30134;47.866;-4.222;2023-02-17T01:40:19;102841.00;;;23.70
44429;BMP180;30134;47.866;-4.222;2023-02-17T01:42:45;102842.00;;;23.70
44429;BMP180;30134;47.866;-4.222;2023-02-17T01:48:21;102843.00;;;23.70
44429;BMP180;30134;47.866;-4.222;2023-02-17T01:51:03;102850.00;;;23.70
44429;BMP180;30134;47.866;-4.222;2023-02-17T01:53:53;102856.00;;;23.70
44429;BMP180;30134;47.866;-4.222;2023-02-17T01:56:22;102853.00;;;23.70
44429;BMP180;30134;47.866;-4.222;2023-02-17T01:59:02;102862.00;;;23.70
44429;BMP180;30134;47.866;-4.222;2023-02-17T02:01:29;102855.00;;;23.70
44429;BMP180;30134;47.866;-4.222;2023-02-17T02:03:58;102848.00;;;23.70
44429;BMP180;30134;47.866;-4.222;2023-02-17T02:06:26;102859.00;;;23.70
44429;BMP180;30134;47.866;-4.222;2023-02-17T02:09:20;102859.00;;;23.70
44429;BMP180;30134;47.866;-4.222;2023-02-17T02:11:49;102853.00;;;23.70
44429;BMP180;30134;47.866;-4.222;2023-02-17T02:14:15;102860.00;;;23.70
44429;BMP180;30134;47.866;-4.222;2023-02-17T02:16:52;102859.00;;;23.70
44429;BMP180;30134;47.866;-4.222;2023-02-17T02:35:19;102838.00;;;23.60
44429;BMP180;30134;47.866;-4.222;2023-02-17T02:40:18;102843.00;;;23.70
44429;BMP180;30134;47.866;-4.222;2023-02-17T02:42:47;102837.00;;;23.70
44429;BMP180;30134;47.866;-4.222;2023-02-17T02:45:15;102838.00;;;23.70
44429;BMP180;30134;47.866;-4.222;2023-02-17T02:47:54;102841.00;;;23.70
44429;BMP180;30134;47.866;-4.222;2023-02-17T02:53:51;102836.00;;;23.70
44429;BMP180;30134;47.866;-4.222;2023-02-17T03:08:07;102834.00;;;23.70
44429;BMP180;30134;47.866;-4.222;2023-02-17T03:10:34;102831.00;;;23.60
44429;BMP180;30134;47.866;-4.222;2023-02-17T03:13:03;102829.00;;;23.60
44429;BMP180;30134;47.866;-4.222;2023-02-17T03:15:32;102829.00;;;23.60
44429;BMP180;30134;47.866;-4.222;2023-02-17T03:18:00;102829.00;;;23.60
44429;BMP180;30134;47.866;-4.222;2023-02-17T03:20:31;102827.00;;;23.60
44429;BMP180;30134;47.866;-4.222;2023-02-17T03:22:58;102825.00;;;23.60
44429;BMP180;30134;47.866;-4.222;2023-02-17T03:25:24;102828.00;;;23.60
44429;BMP180;30134;47.866;-4.222;2023-02-17T03:27:50;102826.00;;;23.60
44429;BMP180;30134;47.866;-4.222;2023-02-17T03:30:17;102824.00;;;23.60
44429;BMP180;30134;47.866;-4.222;2023-02-17T03:32:43;102828.00;;;23.60
44429;BMP180;30134;47.866;-4.222;2023-02-17T03:35:09;102822.00;;;23.60
44429;BMP180;30134;47.866;-4.222;2023-02-17T03:37:36;102826.00;;;23.60
44429;BMP180;30134;47.866;-4.222;2023-02-17T03:40:02;102825.00;;;23.60
44429;BMP180;30134;47.866;-4.222;2023-02-17T03:42:29;102829.00;;;23.60
44429;BMP180;30134;47.866;-4.222;2023-02-17T03:44:55;102834.00;;;23.60
44429;BMP180;30134;47.866;-4.222;2023-02-17T03:47:21;102834.00;;;23.60
44429;BMP180;30134;47.866;-4.222;2023-02-17T03:49:47;102835.00;;;23.60
44429;BMP180;30134;47.866;-4.222;2023-02-17T03:52:13;102834.00;;;23.60
44429;BMP180;30134;47.866;-4.222;2023-02-17T03:54:39;102833.00;;;23.60
44429;BMP180;30134;47.866;-4.222;2023-02-17T03:57:05;102829.00;;;23.60
44429;BMP180;30134;47.866;-4.222;2023-02-17T03:59:31;102822.00;;;23.60
44429;BMP180;30134;47.866;-4.222;2023-02-17T04:01:57;102825.00;;;23.60
44429;BMP180;30134;47.866;-4.222;2023-02-17T04:04:23;102830.00;;;23.60
44429;BMP180;30134;47.866;-4.222;2023-02-17T04:06:49;102829.00;;;23.60
44429;BMP180;30134;47.866;-4.222;2023-02-17T04:09:22;102833.00;;;23.60
44429;BMP180;30134;47.866;-4.222;2023-02-17T04:11:48;102837.00;;;23.60
44429;BMP180;30134;47.866;-4.222;2023-02-17T04:14:14;102833.00;;;23.60
44429;BMP180;30134;47.866;-4.222;2023-02-17T04:16:40;102832.00;;;23.60
44429;BMP180;30134;47.866;-4.222;2023-02-17T04:19:47;102839.00;;;23.60
44429;BMP180;30134;47.866;-4.222;2023-02-17T04:22:13;102844.00;;;23.60
44429;BMP180;30134;47.866;-4.222;2023-02-17T04:24:39;102846.00;;;23.60
44429;BMP180;30134;47.866;-4.222;2023-02-17T04:27:05;102843.00;;;23.60
44429;BMP180;30134;47.866;-4.222;2023-02-17T04:29:32;102843.00;;;23.60
44429;BMP180;30134;47.866;-4.222;2023-02-17T04:31:58;102852.00;;;23.60
44429;BMP180;30134;47.866;-4.222;2023-02-17T04:34:24;102857.00;;;23.60
44429;BMP180;30134;47.866;-4.222;2023-02-17T04:36:50;102861.00;;;23.60
44429;BMP180;30134;47.866;-4.222;2023-02-17T04:39:16;102859.00;;;23.60
44429;BMP180;30134;47.866;-4.222;2023-02-17T04:41:45;102856.00;;;23.60
44429;BMP180;30134;47.866;-4.222;2023-02-17T04:44:11;102858.00;;;23.60
44429;BMP180;30134;47.866;-4.222;2023-02-17T04:46:36;102861.00;;;23.60
44429;BMP180;30134;47.866;-4.222;2023-02-17T04:49:03;102862.00;;;23.60
44429;BMP180;30134;47.866;-4.222;2023-02-17T04:51:29;102860.00;;;23.60
44429;BMP180;30134;47.866;-4.222;2023-02-17T04:53:56;102861.00;;;23.60
44429;BMP180;30134;47.866;-4.222;2023-02-17T04:56:22;102863.00;;;23.60
44429;BMP180;30134;47.866;-4.222;2023-02-17T04:58:48;102865.00;;;23.60
44429;BMP180;30134;47.866;-4.222;2023-02-17T05:01:14;102863.00;;;23.60
44429;BMP180;30134;47.866;-4.222;2023-02-17T05:03:40;102870.00;;;23.60
44429;BMP180;30134;47.866;-4.222;2023-02-17T05:06:06;102868.00;;;23.60
44429;BMP180;30134;47.866;-4.222;2023-02-17T05:08:32;102864.00;;;23.60
44429;BMP180;30134;47.866;-4.222;2023-02-17T05:10:58;102871.00;;;23.60
44429;BMP180;30134;47.866;-4.222;2023-02-17T05:13:27;102867.00;;;23.60
44429;BMP180;30134;47.866;-4.222;2023-02-17T05:15:53;102869.00;;;23.60
44429;BMP180;30134;47.866;-4.222;2023-02-17T05:18:19;102871.00;;;23.60
44429;BMP180;30134;47.866;-4.222;2023-02-17T05:20:45;102879.00;;;23.60
44429;BMP180;30134;47.866;-4.222;2023-02-17T05:23:11;102874.00;;;23.60
44429;BMP180;30134;47.866;-4.222;2023-02-17T05:25:37;102877.00;;;23.60
44429;BMP180;30134;47.866;-4.222;2023-02-17T05:28:05;102875.00;;;23.60
44429;BMP180;30134;47.866;-4.222;2023-02-17T05:30:31;102885.00;;;23.60
44429;BMP180;30134;47.866;-4.222;2023-02-17T05:32:57;102886.00;;;23.60
44429;BMP180;30134;47.866;-4.222;2023-02-17T05:35:23;102883.00;;;23.60
44429;BMP180;30134;47.866;-4.222;2023-02-17T05:37:49;102883.00;;;23.60
44429;BMP180;30134;47.866;-4.222;2023-02-17T05:40:15;102885.00;;;23.60
44429;BMP180;30134;47.866;-4.222;2023-02-17T05:42:41;102891.00;;;23.60
44429;BMP180;30134;47.866;-4.222;2023-02-17T05:45:07;102889.00;;;23.60
44429;BMP180;30134;47.866;-4.222;2023-02-17T05:47:33;102895.00;;;23.60
44429;BMP180;30134;47.866;-4.222;2023-02-17T05:50:00;102895.00;;;23.60
44429;BMP180;30134;47.866;-4.222;2023-02-17T05:52:26;102903.00;;;23.60
44429;BMP180;30134;47.866;-4.222;2023-02-17T05:54:53;102905.00;;;23.60
44429;BMP180;30134;47.866;-4.222;2023-02-17T05:57:19;102910.00;;;23.60
44429;BMP180;30134;47.866;-4.222;2023-02-17T05:59:44;102907.00;;;23.60
44429;BMP180;30134;47.866;-4.222;2023-02-17T06:02:10;102903.00;;;23.60
44429;BMP180;30134;47.866;-4.222;2023-02-17T06:04:36;102912.00;;;23.60
44429;BMP180;30134;47.866;-4.222;2023-02-17T06:07:02;102910.00;;;23.50
44429;BMP180;30134;47.866;-4.222;2023-02-17T06:09:28;102910.00;;;23.50
44429;BMP180;30134;47.866;-4.222;2023-02-17T06:11:54;102909.00;;;23.50
44429;BMP180;30134;47.866;-4.222;2023-02-17T06:14:20;102908.00;;;23.50
44429;BMP180;30134;47.866;-4.222;2023-02-17T06:16:46;102910.00;;;23.50
44429;BMP180;30134;47.866;-4.222;2023-02-17T06:19:12;102910.00;;;23.50
44429;BMP180;30134;47.866;-4.222;2023-02-17T06:21:38;102908.00;;;23.50
44429;BMP180;30134;47.866;-4.222;2023-02-17T06:24:05;102912.00;;;23.50
44429;BMP180;30134;47.866;-4.222;2023-02-17T06:26:31;102916.00;;;23.50
44429;BMP180;30134;47.866;-4.222;2023-02-17T06:28:57;102922.00;;;23.50
44429;BMP180;30134;47.866;-4.222;2023-02-17T06:31:23;102924.00;;;23.50
44429;BMP180;30134;47.866;-4.222;2023-02-17T06:33:49;102925.00;;;23.50
44429;BMP180;30134;47.866;-4.222;2023-02-17T06:36:15;102931.00;;;23.50
44429;BMP180;30134;47.866;-4.222;2023-02-17T06:38:41;102938.00;;;23.50
44429;BMP180;30134;47.866;-4.222;2023-02-17T06:41:07;102941.00;;;23.50
44429;BMP180;30134;47.866;-4.222;2023-02-17T06:43:33;102943.00;;;23.50
44429;BMP180;30134;47.866;-4.222;2023-02-17T06:45:59;102944.00;;;23.50
44429;BMP180;30134;47.866;-4.222;2023-02-17T06:48:25;102955.00;;;23.50
44429;BMP180;30134;47.866;-4.222;2023-02-17T06:50:51;102952.00;;;23.50
44429;BMP180;30134;47.866;-4.222;2023-02-17T06:53:17;102944.00;;;23.50
44429;BMP180;30134;47.866;-4.222;2023-02-17T06:55:44;102944.00;;;23.50
44429;BMP180;30134;47.866;-4.222;2023-02-17T06:58:10;102952.00;;;23.50
44429;BMP180;30134;47.866;-4.222;2023-02-17T07:00:36;102953.00;;;23.50
44429;BMP180;30134;47.866;-4.222;2023-02-17T07:03:02;102951.00;;;23.50
44429;BMP180;30134;47.866;-4.222;2023-02-17T07:05:28;102949.00;;;23.50
44429;BMP180;30134;47.866;-4.222;2023-02-17T07:07:56;102953.00;;;23.50
44429;BMP180;30134;47.866;-4.222;2023-02-17T07:10:23;102956.00;;;23.50
44429;BMP180;30134;47.866;-4.222;2023-02-17T07:12:50;102951.00;;;23.50
44429;BMP180;30134;47.866;-4.222;2023-02-17T07:15:16;102956.00;;;23.50
44429;BMP180;30134;47.866;-4.222;2023-02-17T07:17:42;102951.00;;;23.50
44429;BMP180;30134;47.866;-4.222;2023-02-17T07:20:09;102954.00;;;23.50
44429;BMP180;30134;47.866;-4.222;2023-02-17T07:22:35;102956.00;;;23.50
44429;BMP180;30134;47.866;-4.222;2023-02-17T07:25:01;102950.00;;;23.50
44429;BMP180;30134;47.866;-4.222;2023-02-17T07:27:27;102953.00;;;23.50
44429;BMP180;30134;47.866;-4.222;2023-02-17T07:29:53;102950.00;;;23.50
44429;BMP180;30134;47.866;-4.222;2023-02-17T07:32:20;102947.00;;;23.50
44429;BMP180;30134;47.866;-4.222;2023-02-17T07:34:46;102946.00;;;23.50
44429;BMP180;30134;47.866;-4.222;2023-02-17T07:37:12;102950.00;;;23.50
44429;BMP180;30134;47.866;-4.222;2023-02-17T07:39:38;102956.00;;;23.50
44429;BMP180;30134;47.866;-4.222;2023-02-17T07:42:04;102953.00;;;23.50
44429;BMP180;30134;47.866;-4.222;2023-02-17T07:44:31;102966.00;;;23.50
44429;BMP180;30134;47.866;-4.222;2023-02-17T07:46:58;102965.00;;;23.50
44429;BMP180;30134;47.866;-4.222;2023-02-17T07:49:24;102966.00;;;23.50
44429;BMP180;30134;47.866;-4.222;2023-02-17T07:51:50;102968.00;;;23.50
44429;BMP180;30134;47.866;-4.222;2023-02-17T07:54:16;102970.00;;;23.50
44429;BMP180;30134;47.866;-4.222;2023-02-17T07:56:43;102968.00;;;23.50
44429;BMP180;30134;47.866;-4.222;2023-02-17T07:59:11;102973.00;;;23.50
44429;BMP180;30134;47.866;-4.222;2023-02-17T08:01:37;102977.00;;;23.50
44429;BMP180;30134;47.866;-4.222;2023-02-17T08:04:04;102978.00;;;23.50
44429;BMP180;30134;47.866;-4.222;2023-02-17T08:06:30;102981.00;;;23.50
44429;BMP180;30134;47.866;-4.222;2023-02-17T08:08:56;102987.00;;;23.50
44429;BMP180;30134;47.866;-4.222;2023-02-17T08:11:41;102986.00;;;23.50
44429;BMP180;30134;47.866;-4.222;2023-02-17T08:14:29;102990.00;;;23.50
44429;BMP180;30134;47.866;-4.222;2023-02-17T08:16:56;102985.00;;;23.50
44429;BMP180;30134;47.866;-4.222;2023-02-17T08:19:23;102981.00;;;23.50
44429;BMP180;30134;47.866;-4.222;2023-02-17T08:21:52;102988.00;;;23.50
44429;BMP180;30134;47.866;-4.222;2023-02-17T08:24:18;102980.00;;;23.50
44429;BMP180;30134;47.866;-4.222;2023-02-17T08:26:46;102990.00;;;23.50
44429;BMP180;30134;47.866;-4.222;2023-02-17T08:29:12;102980.00;;;23.50
44429;BMP180;30134;47.866;-4.222;2023-02-17T08:31:38;102983.00;;;23.50
44429;BMP180;30134;47.866;-4.222;2023-02-17T08:34:07;102991.00;;;23.50
44429;BMP180;30134;47.866;-4.222;2023-02-17T08:36:34;102988.00;;;23.50
44429;BMP180;30134;47.866;-4.222;2023-02-17T08:39:05;102996.00;;;23.50
44429;BMP180;30134;47.866;-4.222;2023-02-17T08:41:36;102994.00;;;23.50
44429;BMP180;30134;47.866;-4.222;2023-02-17T08:44:11;103005.00;;;23.50
44429;BMP180;30134;47.866;-4.222;2023-02-17T08:46:38;102999.00;;;23.50
44429;BMP180;30134;47.866;-4.222;2023-02-17T08:49:05;103006.00;;;23.50
44429;BMP180;30134;47.866;-4.222;2023-02-17T08:51:32;103015.00;;;23.50
44429;BMP180;30134;47.866;-4.222;2023-02-17T08:53:59;103018.00;;;23.50
44429;BMP180;30134;47.866;-4.222;2023-02-17T08:56:27;103016.00;;;23.50
44429;BMP180;30134;47.866;-4.222;2023-02-17T08:58:56;103022.00;;;23.50
44429;BMP180;30134;47.866;-4.222;2023-02-17T09:01:22;103025.00;;;23.50
44429;BMP180;30134;47.866;-4.222;2023-02-17T09:03:50;103033.00;;;23.50
44429;BMP180;30134;47.866;-4.222;2023-02-17T09:06:18;103024.00;;;23.50
44429;BMP180;30134;47.866;-4.222;2023-02-17T09:08:45;103030.00;;;23.50
44429;BMP180;30134;47.866;-4.222;2023-02-17T09:11:12;103030.00;;;23.50
44429;BMP180;30134;47.866;-4.222;2023-02-17T09:13:40;103030.00;;;23.60
44429;BMP180;30134;47.866;-4.222;2023-02-17T09:16:06;103029.00;;;23.60
44429;BMP180;30134;47.866;-4.222;2023-02-17T09:18:32;103037.00;;;23.60
44429;BMP180;30134;47.866;-4.222;2023-02-17T09:21:03;103033.00;;;23.60
44429;BMP180;30134;47.866;-4.222;2023-02-17T09:23:29;103035.00;;;23.60
44429;BMP180;30134;47.866;-4.222;2023-02-17T09:26:07;103031.00;;;23.60
44429;BMP180;30134;47.866;-4.222;2023-02-17T09:28:41;103031.00;;;23.60
44429;BMP180;30134;47.866;-4.222;2023-02-17T09:31:19;103031.00;;;23.60
44429;BMP180;30134;47.866;-4.222;2023-02-17T09:33:47;103032.00;;;23.60
44429;BMP180;30134;47.866;-4.222;2023-02-17T09:36:20;103042.00;;;23.60
44429;BMP180;30134;47.866;-4.222;2023-02-17T09:38:47;103035.00;;;23.60
44429;BMP180;30134;47.866;-4.222;2023-02-17T09:43:59;103039.00;;;23.70
44429;BMP180;30134;47.866;-4.222;2023-02-17T09:46:37;103043.00;;;23.70
44429;BMP180;30134;47.866;-4.222;2023-02-17T09:49:20;103042.00;;;23.70
44429;BMP180;30134;47.866;-4.222;2023-02-17T09:52:17;103047.00;;;23.70
44429;BMP180;30134;47.866;-4.222;2023-02-17T09:57:20;103047.00;;;23.70
44429;BMP180;30134;47.866;-4.222;2023-02-17T09:59:58;103047.00;;;23.70
44429;BMP180;30134;47.866;-4.222;2023-02-17T10:05:21;103048.00;;;23.70
44429;BMP180;30134;47.866;-4.222;2023-02-17T10:08:01;103050.00;;;23.70
44429;BMP180;30134;47.866;-4.222;2023-02-17T10:11:34;103041.00;;;23.70
44429;BMP180;30134;47.866;-4.222;2023-02-17T10:14:20;103039.00;;;23.70
44429;BMP180;30134;47.866;-4.222;2023-02-17T10:17:04;103039.00;;;23.70
44429;BMP180;30134;47.866;-4.222;2023-02-17T10:19:54;103043.00;;;23.70
44429;BMP180;30134;47.866;-4.222;2023-02-17T10:22:23;103050.00;;;23.70
44429;BMP180;30134;47.866;-4.222;2023-02-17T10:24:51;103047.00;;;23.70
44429;BMP180;30134;47.866;-4.222;2023-02-17T10:27:54;103045.00;;;23.70
44429;BMP180;30134;47.866;-4.222;2023-02-17T10:30:41;103047.00;;;23.70
44429;BMP180;30134;47.866;-4.222;2023-02-17T10:33:36;103043.00;;;23.70
44429;BMP180;30134;47.866;-4.222;2023-02-17T10:41:36;103066.00;;;23.70
44429;BMP180;30134;47.866;-4.222;2023-02-17T10:44:15;103066.00;;;23.70
44429;BMP180;30134;47.866;-4.222;2023-02-17T10:46:44;103066.00;;;23.70
44429;BMP180;30134;47.866;-4.222;2023-02-17T10:51:46;103079.00;;;23.70
44429;BMP180;30134;47.866;-4.222;2023-02-17T10:54:38;103085.00;;;23.70
44429;BMP180;30134;47.866;-4.222;2023-02-17T10:57:10;103088.00;;;23.70
44429;BMP180;30134;47.866;-4.222;2023-02-17T10:59:40;103090.00;;;23.70
44429;BMP180;30134;47.866;-4.222;2023-02-17T11:02:21;103090.00;;;23.70
44429;BMP180;30134;47.866;-4.222;2023-02-17T11:04:52;103105.00;;;23.70
44429;BMP180;30134;47.866;-4.222;2023-02-17T11:07:40;103100.00;;;23.70
44429;BMP180;30134;47.866;-4.222;2023-02-17T11:12:56;103105.00;;;23.70
44429;BMP180;30134;47.866;-4.222;2023-02-17T11:15:34;103102.00;;;23.70
44429;BMP180;30134;47.866;-4.222;2023-02-17T11:18:17;103104.00;;;23.70
44429;BMP180;30134;47.866;-4.222;2023-02-17T11:20:45;103108.00;;;23.70
44429;BMP180;30134;47.866;-4.222;2023-02-17T11:25:42;103114.00;;;23.70
44429;BMP180;30134;47.866;-4.222;2023-02-17T11:28:22;103114.00;;;23.70
44429;BMP180;30134;47.866;-4.222;2023-02-17T11:31:00;103112.00;;;23.70
44429;BMP180;30134;47.866;-4.222;2023-02-17T11:33:35;103108.00;;;23.80
44429;BMP180;30134;47.866;-4.222;2023-02-17T11:36:07;103112.00;;;23.80
44429;BMP180;30134;47.866;-4.222;2023-02-17T11:41:05;103116.00;;;23.80
44429;BMP180;30134;47.866;-4.222;2023-02-17T11:43:34;103113.00;;;23.80
44429;BMP180;30134;47.866;-4.222;2023-02-17T11:46:36;103112.00;;;23.80
44429;BMP180;30134;47.866;-4.222;2023-02-17T12:00:18;103120.00;;;23.80
44429;BMP180;30134;47.866;-4.222;2023-02-17T12:05:56;103114.00;;;23.80
44429;BMP180;30134;47.866;-4.222;2023-02-17T12:12:15;103113.00;;;23.80
44429;BMP180;30134;47.866;-4.222;2023-02-17T12:26:48;103108.00;;;23.90
44429;BMP180;30134;47.866;-4.222;2023-02-17T12:38:35;103105.00;;;23.90
44429;BMP180;30134;47.866;-4.222;2023-02-17T12:44:01;103097.00;;;24.00
44429;BMP180;30134;47.866;-4.222;2023-02-17T12:47:01;103102.00;;;24.00
44429;BMP180;30134;47.866;-4.222;2023-02-17T12:49:35;103096.00;;;24.00
44429;BMP180;30134;47.866;-4.222;2023-02-17T12:52:27;103099.00;;;24.00
44429;BMP180;30134;47.866;-4.222;2023-02-17T12:55:24;103096.00;;;24.00
44429;BMP180;30134;47.866;-4.222;2023-02-17T12:58:13;103086.00;;;24.00
44429;BMP180;30134;47.866;-4.222;2023-02-17T13:00:49;103088.00;;;24.00
44429;BMP180;30134;47.866;-4.222;2023-02-17T13:03:17;103095.00;;;24.00
44429;BMP180;30134;47.866;-4.222;2023-02-17T13:06:02;103087.00;;;24.00
44429;BMP180;30134;47.866;-4.222;2023-02-17T13:11:31;103082.00;;;24.10
44429;BMP180;30134;47.866;-4.222;2023-02-17T13:14:26;103079.00;;;24.10
44429;BMP180;30134;47.866;-4.222;2023-02-17T13:16:53;103072.00;;;24.10
44429;BMP180;30134;47.866;-4.222;2023-02-17T13:19:32;103075.00;;;24.00
44429;BMP180;30134;47.866;-4.222;2023-02-17T13:22:00;103085.00;;;24.00
44429;BMP180;30134;47.866;-4.222;2023-02-17T13:24:49;103074.00;;;23.90
44429;BMP180;30134;47.866;-4.222;2023-02-17T13:27:45;103075.00;;;23.90
44429;BMP180;30134;47.866;-4.222;2023-02-17T13:32:43;103060.00;;;23.90
44429;BMP180;30134;47.866;-4.222;2023-02-17T13:37:42;103057.00;;;24.00
44429;BMP180;30134;47.866;-4.222;2023-02-17T13:42:43;103049.00;;;24.00
44429;BMP180;30134;47.866;-4.222;2023-02-17T13:48:05;103048.00;;;24.00
44429;BMP180;30134;47.866;-4.222;2023-02-17T13:50:46;103049.00;;;24.00
44429;BMP180;30134;47.866;-4.222;2023-02-17T13:53:34;103048.00;;;24.10
44429;BMP180;30134;47.866;-4.222;2023-02-17T13:56:08;103043.00;;;24.10
44429;BMP180;30134;47.866;-4.222;2023-02-17T13:58:40;103040.00;;;24.10
44429;BMP180;30134;47.866;-4.222;2023-02-17T14:01:16;103045.00;;;24.10
44429;BMP180;30134;47.866;-4.222;2023-02-17T14:03:52;103043.00;;;24.10
44429;BMP180;30134;47.866;-4.222;2023-02-17T14:06:37;103042.00;;;24.10
44429;BMP180;30134;47.866;-4.222;2023-02-17T14:11:43;103029.00;;;24.10
44429;BMP180;30134;47.866;-4.222;2023-02-17T14:14:10;103019.00;;;24.10
44429;BMP180;30134;47.866;-4.222;2023-02-17T14:16:39;103014.00;;;24.10
44429;BMP180;30134;47.866;-4.222;2023-02-17T14:21:43;103021.00;;;24.10
44429;BMP180;30134;47.866;-4.222;2023-02-17T14:24:36;103018.00;;;24.10
44429;BMP180;30134;47.866;-4.222;2023-02-17T14:27:08;103025.00;;;24.20
44429;BMP180;30134;47.866;-4.222;2023-02-17T14:29:47;103019.00;;;24.20
44429;BMP180;30134;47.866;-4.222;2023-02-17T14:32:34;103015.00;;;24.20
44429;BMP180;30134;47.866;-4.222;2023-02-17T14:37:42;103014.00;;;24.20
44429;BMP180;30134;47.866;-4.222;2023-02-17T14:40:19;103017.00;;;24.20
44429;BMP180;30134;47.866;-4.222;2023-02-17T14:42:45;103022.00;;;24.20
44429;BMP180;30134;47.866;-4.222;2023-02-17T14:45:12;103022.00;;;24.20
44429;BMP180;30134;47.866;-4.222;2023-02-17T14:47:44;103020.00;;;24.20
44429;BMP180;30134;47.866;-4.222;2023-02-17T14:50:11;103025.00;;;24.20
44429;BMP180;30134;47.866;-4.222;2023-02-17T14:52:44;103014.00;;;24.20
44429;BMP180;30134;47.866;-4.222;2023-02-17T14:55:37;103017.00;;;24.20
44429;BMP180;30134;47.866;-4.222;2023-02-17T14:58:18;103018.00;;;24.20
44429;BMP180;30134;47.866;-4.222;2023-02-17T15:00:46;103023.00;;;24.20
44429;BMP180;30134;47.866;-4.222;2023-02-17T15:03:12;103014.00;;;24.20
44429;BMP180;30134;47.866;-4.222;2023-02-17T15:05:39;103020.00;;;24.30
44429;BMP180;30134;47.866;-4.222;2023-02-17T15:08:04;103022.00;;;24.30
44429;BMP180;30134;47.866;-4.222;2023-02-17T15:10:38;103019.00;;;24.10
44429;BMP180;30134;47.866;-4.222;2023-02-17T15:13:05;103014.00;;;23.80
44429;BMP180;30134;47.866;-4.222;2023-02-17T15:15:51;103008.00;;;23.50
44429;BMP180;30134;47.866;-4.222;2023-02-17T15:18:38;103025.00;;;23.20
44429;BMP180;30134;47.866;-4.222;2023-02-17T15:21:31;103022.00;;;23.00
44429;BMP180;30134;47.866;-4.222;2023-02-17T15:24:26;103020.00;;;22.80
